Riverton Regional Airport
KRIW : now visible

Airfield :











YOU CAN JOIN US ON...

 
LOGIN :

Register | Disclaimer

   EN    FR    IT 

 









Legend :    VFR   Marginal VFR   IFR   Intensive IFR   Very Intensive IFR
Visi :
Ceiling :
>= 8 km
>= 3000ft
5 to 8 km
1000 to 3000 ft
1500m to 5 km
500 to 1000 ft
800 to 1500m
200 to 500 ft
< 800m
< 200 ft
Symbols :   Thunderstorms  Fog  Heavy snow  Heavy precipitations  Wind > 20 kt







- Airport Elevation : 5525 ft


KRIW - Riverton Regional

CURRENT METAR :
  • 181153Z AUTO 25006KT 10SM CLR 06/M03 A3007 RMK AO2 SLP153 70001 T00611028 10106 20044 58000 TSNO

EXPIRED METARs :
  • 181053Z AUTO 25007KT 10SM CLR 06/M03 A3007 RMK AO2 SLP151 T00561033 TSNO
  • 180953Z AUTO 25009KT 10SM CLR 07/M03 A3008 RMK AO2 SLP148 T00671033 TSNO
  • 180853Z AUTO 26009KT 10SM CLR 07/M02 A3007 RMK AO2 SLP144 T00671022 50000 TSNO

TAF KRIW
Valid from the 18 at 12:00 until the 19 at 12:00 UTC


181133Z 1812/1912 27008KT P6SM SKC
FM181500 VRB04KT P6SM SKC
FM182100 21008KT P6SM SKC
FM190300 26007KT P6SM SKC
No reported NOTAMs for that airfield.



MET'MAP, your aeronautical weather chart ! - Copyright ORBIFLY December 2007 - Disclaimer

ORBIFLY MET'MAP TEAM :

Programming & Development : Alexandra Zaïnal
Concept & Development : Baudouin d'Aumeries
Co-Development & Prog : Marc-Olivier Méhu
Technical & hardware support : Manuel Goepfert

Contact : metmap@orbifly.com




SOURCES & CREDITS :

   NOAA       Earth
Advisory